Terminal Aerodrome Forecast
Issued by NWS

Home | Current Version | Previous Version | Graphics & Text | Print | Product List | Glossary On
Versions: 1 2 3 4 5 6 7 8 9 10 11 12 13 14 15 16 17 18
350
FTUS43 KTOP 150534
TAFFOE
TAF
KFOE 150534Z 1506/1606 17008KT 5SM -SHRA OVC010
     FM150700 21008KT 5SM -SHRA OVC006
     FM151000 32013KT 6SM BR OVC003
     FM151300 33015G22KT P6SM FEW015 SCT200
     FM152200 33009KT P6SM SKC=

USA.gov is the U.S. government's official web portal to all federal, state and local government web resources and services.